Time;durP1;ratioP1;P1;durP2;ratioP2;P2;SDS_P1;SDS_P2;PMS_P1;PMS_P2;Temp;Humidity;BMP_temperature;BMP_pressure;BME280_temperature;BME280_humidity;BME280_pressure;Samples;Min_cycle;Max_cycle;Signal;HPM_P1;HPM_P2
2023/06/23 00:00:11;;;;;;;1.60;1.50;;;26.10;53.20;;;;;;5080869;28;20210;-83
2023/06/23 00:02:40;;;;;;;1.40;1.30;;;26.10;53.20;;;;;;5085245;28;20277;-83
2023/06/23 00:05:09;;;;;;;1.40;1.30;;;26.10;53.30;;;;;;5081406;28;20205;-83
2023/06/23 00:07:36;;;;;;;1.50;1.20;;;26.10;53.30;;;;;;5078276;28;20194;-83
2023/06/23 00:10:05;;;;;;;1.33;1.23;;;26.10;53.30;;;;;;5078672;28;20222;-83
2023/06/23 00:12:33;;;;;;;1.40;1.30;;;26.10;53.40;;;;;;5078596;28;20606;-83
2023/06/23 00:15:03;;;;;;;1.20;1.10;;;26.00;53.30;;;;;;5078700;28;20202;-83
2023/06/23 00:17:30;;;;;;;1.25;1.15;;;26.00;53.40;;;;;;5081044;28;20189;-83
2023/06/23 00:19:57;;;;;;;1.00;1.00;;;26.00;53.40;;;;;;5079561;28;20237;-83
2023/06/23 00:22:25;;;;;;;1.48;1.25;;;26.00;53.50;;;;;;5079104;28;20218;-83
2023/06/23 00:24:52;;;;;;;1.38;1.20;;;26.00;53.50;;;;;;5080304;28;20198;-83
2023/06/23 00:27:19;;;;;;;1.25;1.15;;;26.00;53.50;;;;;;5080049;28;20194;-83
2023/06/23 00:29:46;;;;;;;1.30;1.20;;;26.00;53.50;;;;;;5079877;28;20222;-83
2023/06/23 00:32:14;;;;;;;1.30;1.20;;;26.00;53.60;;;;;;5079574;28;20233;-84
2023/06/23 00:34:41;;;;;;;1.40;1.30;;;26.00;53.60;;;;;;5079778;28;20191;-84
2023/06/23 00:37:09;;;;;;;1.38;1.27;;;25.90;53.60;;;;;;5079836;28;20209;-84
2023/06/23 00:39:36;;;;;;;2.03;1.30;;;25.90;53.70;;;;;;5079708;28;20225;-84
2023/06/23 00:42:05;;;;;;;1.40;1.30;;;25.90;53.70;;;;;;5079362;28;20195;-84
2023/06/23 00:44:33;;;;;;;1.38;1.27;;;25.90;53.70;;;;;;5078940;28;20294;-84
2023/06/23 00:47:01;;;;;;;1.20;1.15;;;25.90;53.70;;;;;;5079294;28;20194;-84
2023/06/23 00:49:31;;;;;;;1.00;1.00;;;25.90;53.80;;;;;;5062858;28;20302;-84
2023/06/23 00:51:58;;;;;;;1.65;1.30;;;25.90;53.80;;;;;;5079234;28;20605;-83
2023/06/23 00:54:28;;;;;;;1.50;1.40;;;25.90;53.90;;;;;;5080483;28;20189;-83
2023/06/23 00:56:58;;;;;;;1.48;1.38;;;25.90;53.90;;;;;;5079092;28;20218;-83
2023/06/23 00:59:28;;;;;;;1.48;1.38;;;25.90;54.00;;;;;;5078657;28;20218;-83
2023/06/23 01:01:57;;;;;;;1.88;1.45;;;25.90;54.10;;;;;;5079212;28;20195;-83
2023/06/23 01:04:25;;;;;;;1.40;1.30;;;25.90;54.10;;;;;;5079686;28;20211;-83
2023/06/23 01:06:59;;;;;;;1.40;1.20;;;25.90;54.00;;;;;;5078420;28;20205;-83
2023/06/23 01:09:42;;;;;;;1.40;1.30;;;25.90;54.10;;;;;;5060901;28;20229;-83
2023/06/23 01:12:12;;;;;;;1.58;1.42;;;25.80;54.00;;;;;;5077595;28;20269;-83
2023/06/23 01:14:51;;;;;;;1.75;1.45;;;25.80;54.20;;;;;;5077110;28;20198;-83
2023/06/23 01:17:22;;;;;;;1.70;1.40;;;25.80;54.20;;;;;;5078204;28;20212;-83
2023/06/23 01:19:56;;;;;;;1.60;1.30;;;25.80;54.20;;;;;;5078275;28;20223;-83
2023/06/23 01:22:31;;;;;;;1.30;1.20;;;25.80;54.30;;;;;;5077857;28;20194;-83
2023/06/23 01:25:02;;;;;;;1.33;1.23;;;25.80;54.40;;;;;;5077685;28;20255;-83
2023/06/23 01:27:40;;;;;;;1.40;1.30;;;25.80;54.40;;;;;;5078333;28;20225;-83
2023/06/23 01:30:09;;;;;;;1.50;1.40;;;25.70;54.40;;;;;;5077052;28;20218;-83
2023/06/23 01:32:38;;;;;;;1.98;1.50;;;25.70;54.50;;;;;;5077078;28;20191;-83
2023/06/23 01:35:08;;;;;;;2.15;1.38;;;25.70;54.60;;;;;;5077100;28;20198;-83
2023/06/23 01:37:35;;;;;;;1.55;1.45;;;25.70;54.60;;;;;;5077497;28;20276;-83
2023/06/23 01:40:07;;;;;;;1.50;1.40;;;25.70;54.60;;;;;;5076396;28;20249;-84
2023/06/23 01:42:37;;;;;;;1.60;1.50;;;25.70;54.60;;;;;;5077129;28;20244;-84
2023/06/23 01:45:07;;;;;;;1.77;1.40;;;25.70;54.80;;;;;;5077129;28;20198;-84
2023/06/23 01:47:37;;;;;;;2.80;1.65;;;25.70;55.00;;;;;;5077089;28;20195;-84
2023/06/23 01:50:05;;;;;;;1.70;1.40;;;25.70;55.70;;;;;;5079801;28;20715;-84
2023/06/23 01:52:34;;;;;;;1.50;1.40;;;25.60;55.50;;;;;;5076803;28;20675;-84
2023/06/23 01:55:01;;;;;;;2.50;1.60;;;25.60;55.20;;;;;;5077629;28;20199;-84
2023/06/23 01:57:28;;;;;;;2.17;1.63;;;25.60;55.30;;;;;;5088733;28;20214;-85
2023/06/23 01:59:55;;;;;;;1.58;1.48;;;25.60;55.30;;;;;;5087126;28;20257;-84
2023/06/23 02:02:24;;;;;;;1.65;1.50;;;25.60;55.40;;;;;;5086589;28;20224;-84
2023/06/23 02:04:52;;;;;;;1.90;1.70;;;25.60;55.50;;;;;;5069679;28;20195;-84
2023/06/23 02:07:20;;;;;;;2.08;1.88;;;25.60;55.70;;;;;;5078228;28;20278;-84
2023/06/23 02:09:47;;;;;;;1.65;1.55;;;25.60;55.70;;;;;;5075337;28;20214;-84
2023/06/23 02:12:14;;;;;;;2.38;1.80;;;25.60;55.90;;;;;;5075808;28;20209;-84
2023/06/23 02:14:41;;;;;;;2.42;2.08;;;25.60;55.90;;;;;;5059588;28;20248;-84
2023/06/23 02:17:10;;;;;;;1.73;1.63;;;25.50;55.90;;;;;;5076817;28;20233;-84
2023/06/23 02:19:38;;;;;;;1.98;1.88;;;25.50;55.90;;;;;;5081660;28;20636;-84
2023/06/23 02:22:08;;;;;;;2.30;2.10;;;25.50;55.90;;;;;;5082118;28;20195;-84
2023/06/23 02:24:35;;;;;;;2.30;2.10;;;25.50;56.00;;;;;;5082446;28;20202;-84
2023/06/23 02:27:03;;;;;;;2.15;1.98;;;25.50;56.00;;;;;;5076852;28;20222;-84
2023/06/23 02:29:30;;;;;;;2.25;2.05;;;25.50;56.00;;;;;;5075513;28;20234;-84
2023/06/23 02:31:57;;;;;;;2.60;2.40;;;25.50;56.00;;;;;;5075020;28;20277;-84
2023/06/23 02:34:26;;;;;;;2.60;2.40;;;25.40;56.00;;;;;;5075394;28;20195;-84
2023/06/23 02:36:56;;;;;;;2.00;1.90;;;25.40;56.10;;;;;;5075163;28;20232;-84
2023/06/23 02:39:26;;;;;;;2.50;2.30;;;25.40;56.20;;;;;;5058416;28;20245;-84
2023/06/23 02:41:55;;;;;;;2.60;2.40;;;25.40;56.20;;;;;;5075023;28;20187;-84
2023/06/23 02:44:29;;;;;;;2.45;2.25;;;25.40;56.20;;;;;;5074758;28;20214;-84
2023/06/23 02:46:57;;;;;;;2.40;2.20;;;25.30;56.20;;;;;;5074340;28;20546;-84
2023/06/23 02:49:28;;;;;;;2.80;2.53;;;25.30;56.20;;;;;;5074729;28;20225;-84
2023/06/23 02:51:58;;;;;;;2.83;2.63;;;25.30;56.20;;;;;;5074824;28;20256;-84
2023/06/23 02:54:31;;;;;;;2.35;2.15;;;25.30;56.20;;;;;;5074520;28;20194;-84
2023/06/23 02:56:58;;;;;;;2.55;2.35;;;25.30;56.20;;;;;;5075144;28;20191;-84
2023/06/23 02:59:25;;;;;;;2.60;2.35;;;25.30;56.30;;;;;;5075339;28;20264;-84
2023/06/23 03:01:53;;;;;;;2.17;2.08;;;25.30;56.20;;;;;;5074534;28;20202;-84
2023/06/23 03:04:22;;;;;;;2.33;2.13;;;25.30;56.30;;;;;;5074686;28;20222;-84
2023/06/23 03:06:49;;;;;;;2.47;2.28;;;25.30;56.00;;;;;;5074176;28;20198;-84
2023/06/23 03:09:16;;;;;;;2.50;2.30;;;25.30;56.10;;;;;;5074933;28;20576;-84
2023/06/23 03:11:45;;;;;;;2.50;2.30;;;25.30;56.20;;;;;;5073945;28;20248;-84
2023/06/23 03:14:12;;;;;;;2.30;2.10;;;25.30;56.00;;;;;;5074118;28;20190;-84
2023/06/23 03:16:43;;;;;;;2.58;2.38;;;25.30;56.10;;;;;;5074220;28;20198;-84
2023/06/23 03:19:17;;;;;;;2.70;2.50;;;25.30;56.10;;;;;;5077388;28;20223;-84
2023/06/23 03:21:44;;;;;;;2.83;2.60;;;25.30;56.00;;;;;;5077695;28;20205;-84
2023/06/23 03:24:12;;;;;;;2.53;2.30;;;25.30;55.80;;;;;;5059922;28;20225;-84
2023/06/23 03:26:40;;;;;;;3.17;2.80;;;25.30;55.80;;;;;;5077455;28;20198;-84
2023/06/23 03:29:10;;;;;;;3.03;2.78;;;25.30;55.70;;;;;;5075452;28;20305;-84
2023/06/23 03:31:41;;;;;;;3.08;2.88;;;25.30;55.70;;;;;;5076023;28;20316;-84
2023/06/23 03:34:09;;;;;;;3.30;3.00;;;25.40;55.50;;;;;;5075829;28;20197;-84
2023/06/23 03:36:37;;;;;;;3.35;2.70;;;25.40;55.40;;;;;;5074136;28;20186;-84
2023/06/23 03:39:09;;;;;;;3.03;2.75;;;25.40;55.30;;;;;;5075321;28;20310;-83
2023/06/23 03:41:36;;;;;;;3.40;3.10;;;25.40;55.30;;;;;;5074336;28;20187;-84
2023/06/23 03:44:09;;;;;;;2.97;2.78;;;25.40;55.20;;;;;;5074239;28;20589;-84
2023/06/23 03:46:42;;;;;;;3.40;3.10;;;25.50;55.40;;;;;;5073862;28;20241;-84
2023/06/23 03:49:09;;;;;;;3.38;3.08;;;25.40;55.10;;;;;;5074337;28;20242;-84
2023/06/23 03:51:37;;;;;;;3.20;3.00;;;25.50;55.20;;;;;;5075529;28;20209;-84
2023/06/23 03:54:04;;;;;;;3.60;3.28;;;25.40;55.10;;;;;;5074250;28;20197;-84
2023/06/23 03:56:31;;;;;;;3.30;3.08;;;25.40;55.10;;;;;;5075235;28;20204;-84
2023/06/23 03:58:59;;;;;;;3.60;3.30;;;25.50;55.00;;;;;;5074867;28;20217;-84
2023/06/23 04:01:26;;;;;;;3.88;3.58;;;25.50;55.10;;;;;;5074149;28;20653;-84
2023/06/23 04:03:54;;;;;;;3.78;3.47;;;25.50;55.10;;;;;;5074215;28;20686;-84
2023/06/23 04:06:22;;;;;;;3.88;3.58;;;25.50;55.10;;;;;;5074110;28;20195;-84
2023/06/23 04:08:49;;;;;;;3.70;3.40;;;25.50;55.20;;;;;;5073702;28;20218;-84
2023/06/23 04:11:16;;;;;;;3.78;3.47;;;25.50;55.00;;;;;;5074194;28;20202;-84
2023/06/23 04:13:44;;;;;;;3.95;3.60;;;25.50;54.90;;;;;;5074610;28;20225;-84
2023/06/23 04:16:10;;;;;;;3.90;3.60;;;25.50;54.80;;;;;;5074235;28;20256;-84
2023/06/23 04:18:37;;;;;;;3.75;3.45;;;25.50;54.90;;;;;;5074077;28;20215;-84
2023/06/23 04:21:06;;;;;;;4.30;3.90;;;25.50;54.80;;;;;;5073998;28;20216;-84
2023/06/23 04:23:33;;;;;;;4.28;3.88;;;25.50;54.70;;;;;;5074298;28;20229;-84
2023/06/23 04:26:01;;;;;;;4.18;3.83;;;25.50;54.70;;;;;;5076194;28;20202;-84
2023/06/23 04:28:29;;;;;;;4.25;3.85;;;25.50;54.70;;;;;;5073452;28;20218;-84
2023/06/23 04:30:56;;;;;;;3.78;3.42;;;25.50;54.60;;;;;;5056948;28;20206;-84
2023/06/23 04:33:23;;;;;;;4.03;3.72;;;25.50;54.60;;;;;;5073580;28;20661;-84
2023/06/23 04:35:50;;;;;;;4.13;3.72;;;25.50;54.60;;;;;;5073036;28;20364;-84
2023/06/23 04:38:20;;;;;;;4.47;4.07;;;25.50;54.50;;;;;;5074144;28;20222;-84
2023/06/23 04:40:51;;;;;;;4.47;4.07;;;25.50;54.50;;;;;;5075194;28;20207;-84
2023/06/23 04:43:19;;;;;;;4.53;3.70;;;25.50;54.50;;;;;;5073603;28;20195;-84
2023/06/23 04:45:49;;;;;;;4.65;4.25;;;25.50;54.50;;;;;;5072958;28;20564;-84
2023/06/23 04:48:16;;;;;;;4.72;4.32;;;25.50;54.50;;;;;;5075106;28;20199;-84
2023/06/23 04:50:43;;;;;;;4.13;3.83;;;25.50;54.50;;;;;;5077217;28;20195;-84
2023/06/23 04:53:14;;;;;;;4.40;4.03;;;25.50;54.40;;;;;;5077556;28;20217;-84
2023/06/23 04:55:44;;;;;;;4.35;3.95;;;25.50;54.50;;;;;;5076814;28;20692;-84
2023/06/23 04:58:11;;;;;;;4.78;4.38;;;25.50;54.30;;;;;;5076638;28;20221;-83
2023/06/23 05:00:38;;;;;;;4.45;4.05;;;25.50;54.00;;;;;;5076483;28;20213;-84
2023/06/23 05:03:05;;;;;;;4.90;4.50;;;25.50;54.00;;;;;;5076529;28;20195;-82
2023/06/23 05:05:32;;;;;;;4.70;4.30;;;25.50;54.00;;;;;;5076931;28;20746;-83
2023/06/23 05:07:59;;;;;;;5.28;4.80;;;25.50;54.00;;;;;;5076219;28;20206;-83
2023/06/23 05:10:28;;;;;;;6.75;6.13;;;25.40;54.20;;;;;;5076304;28;20209;-83
2023/06/23 05:12:57;;;;;;;7.90;7.15;;;25.40;52.70;;;;;;5079729;28;20199;-83
2023/06/23 05:15:24;;;;;;;8.50;7.47;;;25.30;52.40;;;;;;5076293;28;20260;-83
2023/06/23 05:17:54;;;;;;;7.90;7.10;;;25.20;52.70;;;;;;5076609;28;20244;-83
2023/06/23 05:20:22;;;;;;;8.95;8.05;;;25.10;53.20;;;;;;5076444;28;20222;-83
2023/06/23 05:22:51;;;;;;;8.00;7.13;;;24.90;52.90;;;;;;5076826;28;20203;-84
2023/06/23 05:25:18;;;;;;;9.63;7.93;;;24.70;53.30;;;;;;5076170;28;20222;-84
2023/06/23 05:27:45;;;;;;;8.95;8.15;;;24.60;53.50;;;;;;5077305;28;20262;-83
2023/06/23 05:30:16;;;;;;;11.00;8.52;;;24.50;53.70;;;;;;5076506;28;20269;-83
2023/06/23 05:32:43;;;;;;;8.63;7.72;;;24.40;53.70;;;;;;5077458;28;20191;-83
2023/06/23 05:35:11;;;;;;;9.57;8.55;;;24.30;54.50;;;;;;5076249;28;20234;-83
2023/06/23 05:37:39;;;;;;;10.50;9.23;;;24.20;54.10;;;;;;5078550;28;20214;-83
2023/06/23 05:40:08;;;;;;;10.27;9.18;;;24.20;54.20;;;;;;5076981;28;20221;-84
2023/06/23 05:42:35;;;;;;;10.00;8.85;;;24.20;53.50;;;;;;5065271;28;20206;-83
2023/06/23 05:45:03;;;;;;;10.27;9.27;;;24.10;54.20;;;;;;5082068;28;20290;-83
2023/06/23 05:47:35;;;;;;;11.32;10.23;;;24.00;54.30;;;;;;5081886;28;20194;-83
2023/06/23 05:50:02;;;;;;;11.30;10.13;;;24.00;54.30;;;;;;5078488;28;20226;-83
2023/06/23 05:52:30;;;;;;;10.43;9.32;;;24.00;54.30;;;;;;5076333;28;20232;-83
2023/06/23 05:54:58;;;;;;;8.52;7.18;;;23.90;54.40;;;;;;5075710;28;20217;-83
2023/06/23 05:57:28;;;;;;;7.80;7.05;;;23.90;54.40;;;;;;5076207;28;20556;-83
2023/06/23 05:59:59;;;;;;;7.10;6.40;;;24.00;54.50;;;;;;5075496;28;20306;-83
2023/06/23 06:02:26;;;;;;;7.05;6.20;;;24.10;54.50;;;;;;5075618;28;20664;-83
2023/06/23 06:04:56;;;;;;;6.80;6.13;;;24.20;54.40;;;;;;5076399;28;20218;-83
2023/06/23 06:07:24;;;;;;;6.90;6.15;;;24.30;54.30;;;;;;5076078;28;20252;-86
2023/06/23 06:09:51;;;;;;;6.80;6.20;;;24.40;54.20;;;;;;5058512;28;20308;-85
2023/06/23 06:12:18;;;;;;;6.78;6.18;;;24.50;54.00;;;;;;5076975;28;20205;-85
2023/06/23 06:14:46;;;;;;;7.10;6.28;;;24.60;53.90;;;;;;5075555;28;20198;-85
2023/06/23 06:17:13;;;;;;;6.90;6.30;;;24.70;53.90;;;;;;5076139;28;20198;-85
2023/06/23 06:19:41;;;;;;;6.93;6.32;;;24.80;53.80;;;;;;5074791;28;20314;-85
2023/06/23 06:22:09;;;;;;;6.55;5.95;;;24.90;53.60;;;;;;5075186;28;20198;-85
2023/06/23 06:24:37;;;;;;;7.45;6.75;;;24.90;53.50;;;;;;5075128;28;20735;-85
2023/06/23 06:27:05;;;;;;;6.05;5.55;;;24.90;53.30;;;;;;5075371;28;20195;-84
2023/06/23 06:29:32;;;;;;;5.72;5.22;;;25.00;53.50;;;;;;5074322;28;20223;-83
2023/06/23 06:31:59;;;;;;;5.57;5.07;;;25.10;53.30;;;;;;5074367;28;20198;-83
2023/06/23 06:34:26;;;;;;;6.13;5.63;;;25.20;53.20;;;;;;5073571;28;20194;-83
2023/06/23 06:36:53;;;;;;;6.30;5.70;;;25.30;53.00;;;;;;5072913;28;20650;-83
2023/06/23 06:39:22;;;;;;;6.18;5.57;;;25.40;52.80;;;;;;5072973;28;20246;-83
2023/06/23 06:41:49;;;;;;;5.55;4.95;;;25.50;52.60;;;;;;5073364;28;20202;-83
2023/06/23 06:44:19;;;;;;;5.15;4.72;;;25.60;52.40;;;;;;5074913;28;20267;-83
2023/06/23 06:46:46;;;;;;;5.57;4.93;;;25.70;52.10;;;;;;5074646;28;20198;-83
2023/06/23 06:49:14;;;;;;;6.13;5.43;;;25.70;51.90;;;;;;5057984;28;20275;-83
2023/06/23 06:51:41;;;;;;;5.35;4.95;;;25.80;51.90;;;;;;5075386;28;20725;-83
2023/06/23 06:54:08;;;;;;;5.50;5.10;;;25.80;51.80;;;;;;5074474;28;20293;-83
2023/06/23 06:56:37;;;;;;;5.75;5.28;;;25.80;51.80;;;;;;5058334;28;20236;-83
2023/06/23 06:59:04;;;;;;;6.57;5.22;;;25.80;51.80;;;;;;5074291;28;20219;-83
2023/06/23 07:01:31;;;;;;;5.93;5.28;;;25.90;51.70;;;;;;5074312;28;20216;-83
2023/06/23 07:03:58;;;;;;;4.93;4.53;;;25.90;51.70;;;;;;5074203;28;20195;-83
2023/06/23 07:06:27;;;;;;;5.78;5.28;;;25.90;51.60;;;;;;5073833;28;20198;-83
2023/06/23 07:08:55;;;;;;;5.68;5.05;;;25.90;51.50;;;;;;5074312;28;20229;-83
2023/06/23 07:11:22;;;;;;;5.68;5.18;;;25.90;51.50;;;;;;5056393;28;20198;-83
2023/06/23 07:13:50;;;;;;;5.82;5.28;;;25.90;51.40;;;;;;5057183;28;20203;-83
2023/06/23 07:16:17;;;;;;;6.03;5.53;;;25.90;51.30;;;;;;5075778;28;20193;-83
2023/06/23 07:18:45;;;;;;;5.72;5.22;;;25.90;51.20;;;;;;5073829;28;20222;-83
2023/06/23 07:21:12;;;;;;;5.70;5.20;;;26.00;51.80;;;;;;5074134;28;20606;-83
2023/06/23 07:23:40;;;;;;;7.00;5.35;;;26.00;51.00;;;;;;5075069;28;20206;-83
2023/06/23 07:26:07;;;;;;;5.90;5.40;;;26.10;50.90;;;;;;5074489;28;20268;-83
2023/06/23 07:28:34;;;;;;;5.90;5.22;;;26.20;50.70;;;;;;5075673;28;20214;-84
2023/06/23 07:31:03;;;;;;;5.32;4.82;;;26.20;50.50;;;;;;5075811;28;20225;-84
2023/06/23 07:33:30;;;;;;;5.38;4.88;;;26.20;50.50;;;;;;5074384;28;20199;-83
2023/06/23 07:35:57;;;;;;;6.00;5.40;;;26.20;50.50;;;;;;5074112;28;20205;-82
2023/06/23 07:38:24;;;;;;;5.45;4.95;;;26.30;50.50;;;;;;5074360;28;20275;-83
2023/06/23 07:40:52;;;;;;;5.82;5.32;;;26.30;50.40;;;;;;5074334;28;20676;-83
2023/06/23 07:43:20;;;;;;;5.55;5.10;;;26.30;50.40;;;;;;5074469;28;20678;-83
2023/06/23 07:45:47;;;;;;;5.90;5.40;;;26.30;50.30;;;;;;5073577;28;20225;-83
2023/06/23 07:48:16;;;;;;;6.35;5.18;;;26.30;50.20;;;;;;5073466;28;20229;-83
2023/06/23 07:50:46;;;;;;;6.00;5.40;;;26.30;50.20;;;;;;5073227;28;20576;-83
2023/06/23 07:53:13;;;;;;;5.88;5.38;;;26.30;50.10;;;;;;5073381;28;20698;-83
2023/06/23 07:55:40;;;;;;;5.28;4.88;;;26.30;50.10;;;;;;5073541;28;20194;-83
2023/06/23 07:58:07;;;;;;;5.65;5.15;;;26.30;50.10;;;;;;5073091;28;20202;-83
2023/06/23 08:00:34;;;;;;;5.68;5.20;;;26.30;50.10;;;;;;5056361;28;20662;-83
2023/06/23 08:03:02;;;;;;;5.55;5.13;;;26.30;50.10;;;;;;5073565;28;20209;-83
2023/06/23 08:05:30;;;;;;;5.70;5.20;;;26.30;50.10;;;;;;5073281;28;20215;-83
2023/06/23 08:07:57;;;;;;;5.32;4.93;;;26.30;50.30;;;;;;5073332;28;20217;-83
2023/06/23 08:10:24;;;;;;;5.32;4.93;;;26.20;50.20;;;;;;5075080;28;20191;-83
2023/06/23 08:12:52;;;;;;;5.43;4.93;;;26.30;50.30;;;;;;5074149;28;20703;-83
2023/06/23 08:15:19;;;;;;;5.65;5.15;;;26.20;50.30;;;;;;5073954;28;20194;-83
2023/06/23 08:17:48;;;;;;;5.43;5.03;;;26.20;50.30;;;;;;5074388;28;20194;-83
2023/06/23 08:20:15;;;;;;;5.55;5.05;;;26.20;50.20;;;;;;5073616;28;20307;-83
2023/06/23 08:22:43;;;;;;;5.15;4.75;;;26.20;50.20;;;;;;5074213;28;20195;-83
2023/06/23 08:25:10;;;;;;;5.03;4.63;;;26.20;50.00;;;;;;5077486;28;20287;-83
2023/06/23 08:27:37;;;;;;;5.80;5.30;;;26.30;50.10;;;;;;5077050;28;20194;-83
2023/06/23 08:30:06;;;;;;;5.30;4.82;;;26.30;50.00;;;;;;5076842;28;20233;-83
2023/06/23 08:32:34;;;;;;;5.00;4.60;;;26.30;50.10;;;;;;5060770;28;20289;-83
2023/06/23 08:35:02;;;;;;;4.95;4.55;;;26.40;50.20;;;;;;5076817;28;20252;-83
2023/06/23 08:37:30;;;;;;;5.25;4.85;;;26.30;50.10;;;;;;5076640;28;20285;-83
2023/06/23 08:39:58;;;;;;;5.75;5.25;;;26.30;50.20;;;;;;5076747;28;20279;-83
2023/06/23 08:42:25;;;;;;;5.32;4.93;;;26.40;50.20;;;;;;5077268;28;20198;-83
2023/06/23 08:44:52;;;;;;;5.38;4.88;;;26.40;50.10;;;;;;5076610;28;20255;-83
2023/06/23 08:47:20;;;;;;;5.13;4.65;;;26.40;50.00;;;;;;5077975;28;20187;-83
2023/06/23 08:49:48;;;;;;;5.80;5.25;;;26.50;49.90;;;;;;5077419;28;20214;-83
2023/06/23 08:52:17;;;;;;;4.88;4.47;;;26.60;49.60;;;;;;5078084;28;20194;-84
2023/06/23 08:54:44;;;;;;;4.78;4.38;;;26.70;49.50;;;;;;5078253;28;20198;-83
2023/06/23 08:57:13;;;;;;;4.95;4.55;;;26.80;49.50;;;;;;5062814;28;20194;-83
2023/06/23 08:59:41;;;;;;;4.93;4.57;;;26.80;49.20;;;;;;5079500;28;20214;-83
2023/06/23 09:02:08;;;;;;;5.40;4.90;;;26.90;49.00;;;;;;5079957;28;20231;-83
2023/06/23 09:04:35;;;;;;;5.30;4.90;;;27.00;48.90;;;;;;5079555;28;20202;-84
2023/06/23 09:07:02;;;;;;;4.90;4.50;;;27.00;48.80;;;;;;5078628;28;20221;-83
2023/06/23 09:09:29;;;;;;;4.80;4.40;;;27.10;48.70;;;;;;5078645;28;20268;-84
2023/06/23 09:11:56;;;;;;;4.95;4.55;;;27.20;48.50;;;;;;5079140;28;20198;-84
2023/06/23 09:14:25;;;;;;;5.10;4.70;;;27.30;48.10;;;;;;5078778;28;20213;-84
2023/06/23 09:16:53;;;;;;;5.13;4.70;;;27.50;47.80;;;;;;5078919;28;20220;-84
2023/06/23 09:19:21;;;;;;;5.10;4.70;;;27.70;47.40;;;;;;5080750;28;20229;-84
2023/06/23 09:21:48;;;;;;;5.30;4.80;;;27.80;47.10;;;;;;5081370;28;20252;-84
2023/06/23 09:24:15;;;;;;;4.85;4.45;;;27.80;46.90;;;;;;5081664;28;20652;-84
2023/06/23 09:26:46;;;;;;;5.03;4.63;;;27.90;46.90;;;;;;5081457;28;20735;-84
2023/06/23 09:29:20;;;;;;;4.75;4.35;;;27.90;46.80;;;;;;5080324;28;20241;-84
2023/06/23 09:31:49;;;;;;;5.00;4.60;;;27.90;46.70;;;;;;5080988;28;20228;-84
2023/06/23 09:34:23;;;;;;;5.05;4.65;;;27.80;46.70;;;;;;5080436;28;20590;-84
2023/06/23 09:36:52;;;;;;;5.00;4.60;;;27.80;46.70;;;;;;5079850;28;20648;-84
2023/06/23 09:39:19;;;;;;;5.07;4.63;;;27.80;46.50;;;;;;5079915;28;20222;-84
2023/06/23 09:41:47;;;;;;;4.20;3.88;;;27.90;46.30;;;;;;5079953;28;20198;-84
2023/06/23 09:44:16;;;;;;;5.53;5.00;;;28.00;46.10;;;;;;5079251;28;20259;-84
2023/06/23 09:46:43;;;;;;;4.82;4.40;;;28.00;46.10;;;;;;5059997;28;20582;-84
2023/06/23 09:49:12;;;;;;;4.70;4.40;;;28.00;46.20;;;;;;5075856;28;20252;-84
2023/06/23 09:51:39;;;;;;;4.97;4.57;;;28.00;46.10;;;;;;5076440;28;20221;-84
2023/06/23 09:54:06;;;;;;;4.88;4.47;;;28.00;46.10;;;;;;5060069;28;20205;-84
2023/06/23 09:56:33;;;;;;;4.53;4.22;;;28.00;46.70;;;;;;5076144;28;20201;-84
2023/06/23 09:59:00;;;;;;;5.15;4.75;;;28.00;46.10;;;;;;5076662;28;20753;-84
2023/06/23 10:01:28;;;;;;;5.22;4.82;;;28.00;46.00;;;;;;5076250;28;20194;-84
2023/06/23 10:03:55;;;;;;;4.65;4.25;;;28.00;45.90;;;;;;5076131;28;20514;-84
2023/06/23 10:06:25;;;;;;;4.60;4.30;;;28.10;45.90;;;;;;5076208;28;20237;-84
2023/06/23 10:08:54;;;;;;;4.88;4.47;;;28.20;45.70;;;;;;5075588;28;20218;-84
2023/06/23 10:11:32;;;;;;;4.60;4.20;;;28.20;45.50;;;;;;5075570;28;20739;-84
2023/06/23 10:14:01;;;;;;;4.90;4.50;;;28.40;45.40;;;;;;5075469;28;20247;-84
2023/06/23 10:16:29;;;;;;;4.68;4.32;;;28.40;45.30;;;;;;5078003;28;20193;-84
2023/06/23 10:18:56;;;;;;;4.38;3.97;;;28.50;45.20;;;;;;5077643;28;20557;-84
2023/06/23 10:21:24;;;;;;;4.80;4.40;;;28.50;45.00;;;;;;5059391;28;20198;-84
2023/06/23 10:23:52;;;;;;;4.95;4.47;;;28.60;44.60;;;;;;5075695;28;20194;-84
2023/06/23 10:26:19;;;;;;;4.78;4.38;;;28.60;44.30;;;;;;5075936;28;20308;-84
2023/06/23 10:28:48;;;;;;;4.38;4.07;;;28.60;44.20;;;;;;5075336;28;20316;-84
2023/06/23 10:31:14;;;;;;;5.03;4.63;;;28.60;44.20;;;;;;5074897;28;20205;-84
2023/06/23 10:33:42;;;;;;;5.05;4.65;;;28.60;44.40;;;;;;5075092;28;20611;-84
2023/06/23 10:36:10;;;;;;;4.78;4.38;;;28.50;44.40;;;;;;5058616;28;20228;-84
2023/06/23 10:38:40;;;;;;;4.75;4.35;;;28.50;44.80;;;;;;5074859;28;20225;-84
2023/06/23 10:41:07;;;;;;;4.30;3.97;;;28.40;44.90;;;;;;5075163;28;20198;-84
2023/06/23 10:46:25;;;;;;;4.53;4.22;;;28.30;44.70;;;;;;5038602;28;20224;-81
2023/06/23 10:48:52;;;;;;;4.80;4.40;;;28.20;45.00;;;;;;5010206;28;20215;-81
2023/06/23 10:51:19;;;;;;;4.63;4.28;;;28.10;45.00;;;;;;5021957;28;20192;-81
2023/06/23 10:53:56;;;;;;;4.35;4.05;;;28.10;45.40;;;;;;5038338;28;20658;-81
2023/06/23 10:56:33;;;;;;;4.70;4.30;;;28.00;45.70;;;;;;5021808;28;20187;-81
2023/06/23 10:59:00;;;;;;;4.68;4.28;;;27.90;45.80;;;;;;5021862;28;20314;-83
2023/06/23 11:01:28;;;;;;;4.82;4.43;;;27.80;46.00;;;;;;5038829;28;20204;-83
2023/06/23 11:03:58;;;;;;;4.88;4.47;;;27.80;45.80;;;;;;5037706;28;20199;-83
2023/06/23 11:06:29;;;;;;;4.32;4.03;;;27.80;46.00;;;;;;5037942;28;20219;-83
2023/06/23 11:08:59;;;;;;;4.28;3.88;;;27.80;46.00;;;;;;5038728;28;20226;-82
2023/06/23 11:11:33;;;;;;;4.70;4.30;;;27.80;46.00;;;;;;5038342;28;20203;-83
2023/06/23 11:14:00;;;;;;;4.70;4.30;;;27.80;46.10;;;;;;5038944;28;20195;-82
2023/06/23 11:16:28;;;;;;;4.35;4.05;;;27.80;46.30;;;;;;5038478;28;20199;-81
2023/06/23 11:18:57;;;;;;;4.40;4.00;;;27.80;46.50;;;;;;5036720;28;20220;-81
2023/06/23 11:21:30;;;;;;;4.70;4.40;;;27.80;46.60;;;;;;5036688;28;20720;-81
2023/06/23 11:24:15;;;;;;;4.40;4.10;;;27.80;46.50;;;;;;5052706;28;20196;-83
2023/06/23 11:26:50;;;;;;;4.38;4.03;;;27.80;46.50;;;;;;5034621;28;20211;-83
2023/06/23 11:29:19;;;;;;;4.43;4.03;;;27.70;46.40;;;;;;5035392;28;20245;-83
2023/06/23 11:32:05;;;;;;;4.82;4.43;;;27.70;46.50;;;;;;5034494;28;20210;-83
2023/06/23 11:34:47;;;;;;;4.32;4.00;;;27.80;46.40;;;;;;5035419;28;20219;-83
2023/06/23 11:37:15;;;;;;;4.50;4.20;;;27.80;46.20;;;;;;5036597;28;20542;-82
2023/06/23 11:39:44;;;;;;;4.65;4.25;;;27.80;46.00;;;;;;5035331;28;20219;-82
2023/06/23 11:42:11;;;;;;;4.43;4.03;;;27.80;46.00;;;;;;5051947;28;20579;-82
2023/06/23 11:44:38;;;;;;;4.50;4.10;;;27.90;45.90;;;;;;5034762;28;20207;-82
2023/06/23 11:47:06;;;;;;;4.15;3.85;;;27.90;45.90;;;;;;5018955;28;20686;-82
2023/06/23 11:49:33;;;;;;;3.97;3.67;;;27.90;46.00;;;;;;5019584;28;20223;-82
2023/06/23 11:52:04;;;;;;;4.18;3.88;;;27.90;46.20;;;;;;5035883;28;20289;-81
2023/06/23 11:54:32;;;;;;;4.28;3.97;;;27.90;46.20;;;;;;5035849;28;20717;-81
2023/06/23 11:57:01;;;;;;;4.38;3.97;;;27.90;46.20;;;;;;5034801;28;20633;-81
2023/06/23 11:59:34;;;;;;;4.53;4.22;;;28.00;46.10;;;;;;5035964;28;20235;-81
2023/06/23 12:02:01;;;;;;;4.28;3.97;;;27.90;45.80;;;;;;5035565;28;20199;-81
2023/06/23 12:04:29;;;;;;;4.65;4.35;;;28.00;45.90;;;;;;5052363;28;20538;-81
2023/06/23 12:06:56;;;;;;;4.35;4.05;;;27.90;45.80;;;;;;5034966;28;20314;-81
2023/06/23 12:09:24;;;;;;;4.50;4.10;;;28.00;45.60;;;;;;5035449;28;20315;-81
2023/06/23 12:11:52;;;;;;;4.97;4.15;;;27.90;45.60;;;;;;5036085;28;20204;-82
2023/06/23 12:14:27;;;;;;;3.95;3.65;;;27.90;45.60;;;;;;5035334;28;20199;-82
2023/06/23 12:16:54;;;;;;;4.30;4.00;;;27.90;45.50;;;;;;5035500;28;20190;-82
2023/06/23 12:19:22;;;;;;;5.10;4.70;;;27.90;45.50;;;;;;5036303;28;20315;-82
2023/06/23 12:21:49;;;;;;;4.15;3.85;;;27.90;45.80;;;;;;5036468;28;20199;-82
2023/06/23 12:24:19;;;;;;;4.40;4.00;;;27.80;46.00;;;;;;5037725;28;20199;-82
2023/06/23 12:26:47;;;;;;;4.43;4.13;;;27.80;46.20;;;;;;5037882;28;20553;-82
2023/06/23 12:29:14;;;;;;;3.97;3.67;;;27.80;46.20;;;;;;5035714;28;20246;-83
2023/06/23 12:31:43;;;;;;;4.75;4.35;;;27.80;46.10;;;;;;5034755;28;20196;-82
2023/06/23 12:34:14;;;;;;;4.30;4.00;;;27.80;46.00;;;;;;5034354;28;20206;-82
2023/06/23 12:36:43;;;;;;;4.32;3.92;;;27.80;46.10;;;;;;5034748;28;20192;-82
2023/06/23 12:39:12;;;;;;;4.43;4.03;;;27.80;46.20;;;;;;5035130;28;20215;-82
2023/06/23 12:41:40;;;;;;;4.50;4.10;;;27.80;46.20;;;;;;5035530;28;20510;-82
2023/06/23 12:44:09;;;;;;;3.95;3.65;;;27.80;46.20;;;;;;5034137;28;20196;-82
2023/06/23 12:46:36;;;;;;;4.43;4.03;;;27.70;46.20;;;;;;5034442;28;20769;-82
2023/06/23 12:49:09;;;;;;;4.22;3.92;;;27.70;46.30;;;;;;5018710;28;20219;-82
2023/06/23 12:51:38;;;;;;;4.10;3.80;;;27.70;46.20;;;;;;5034695;28;20265;-82
2023/06/23 12:54:06;;;;;;;3.97;3.67;;;27.70;46.20;;;;;;5035101;28;20238;-82